This is the latest recevied weather packets stored in our database for station/object WA0LM. If no packets are shown the sender has not sent any weather packets the latest 10 day(s).
| Time | Temp. | Humidity | Pressure | Rain* | Wind** | Luminosity | Snow |
|---|---|---|---|---|---|---|---|
| 1777769996 | 15.56° C | 47% | 1006.6 hPa | 0 mm | - | 15 W/m² | - |
| 1777769693 | 15.56° C | 46% | 1006.8 hPa | 0 mm | - | 15 W/m² | - |
| 1777769390 | 15.56° C | 45% | 1007 hPa | 0 mm | - | 20 W/m² | - |
| 1777769086 | 15.56° C | 45% | 1007 hPa | 0 mm | - | 19 W/m² | - |
| 1777768785 | 15.56° C | 45% | 1007.4 hPa | 0 mm | - | 19 W/m² | - |
| 1777768481 | 15.56° C | 47% | 1007.5 hPa | 0 mm | - | 15 W/m² | - |
| 1777768178 | 15.56° C | 47% | 1007.8 hPa | 0 mm | - | 17 W/m² | - |
| 1777767875 | 15.56° C | 46% | 1007.8 hPa | 0 mm | - | 18 W/m² | - |
| 1777767572 | 15.56° C | 49% | 1008.1 hPa | 0 mm | - | 20 W/m² | - |
| 1777767268 | 15.56° C | 46% | 1008 hPa | 0 mm | - | 23 W/m² | - |
| 1777766966 | 15.56° C | 48% | 1008 hPa | 0 mm | - | 32 W/m² | - |
| 1777766662 | 15.56° C | 48% | 1008.2 hPa | 0 mm | - | 32 W/m² | - |
| 1777766360 | 16.11° C | 44% | 1008.1 hPa | 0 mm | - | 25 W/m² | - |
| 1777766057 | 16.11° C | 48% | 1008.4 hPa | 0 mm | - | 23 W/m² | - |
| 1777765754 | 16.11° C | 45% | 1008.4 hPa | 0 mm | - | 39 W/m² | - |
| 1777765450 | 16.67° C | 43% | 1008.4 hPa | 0 mm | - | 63 W/m² | - |
| 1777765148 | 16.67° C | 41% | 1008.4 hPa | 0 mm | - | 71 W/m² | - |
| 1777764843 | 16.67° C | 41% | 1008.3 hPa | 0 mm | - | 84 W/m² | - |
| 1777764541 | 16.67° C | 41% | 1008.2 hPa | 0 mm | - | 111 W/m² | - |
| 1777764237 | 17.22° C | 40% | 1008.3 hPa | 0 mm | - | 91 W/m² | - |
| 1777763933 | 17.22° C | 40% | 1008.2 hPa | 0 mm | - | 109 W/m² | - |
| 1777763631 | 17.22° C | 41% | 1008.3 hPa | 0 mm | - | 116 W/m² | - |
| 1777763329 | 17.22° C | 41% | 1008.2 hPa | 0 mm | - | 134 W/m² | - |
| 1777763027 | 17.22° C | 42% | 1008.3 hPa | 0 mm | - | 142 W/m² | - |
| 1777762724 | 17.78° C | 40% | 1008.2 hPa | 0 mm | - | 189 W/m² | - |
* Rain latest hour (hover to see other rain measurements)
** Current wind speed in m/s (hover to see current wind gust speed)